Time;durP1;ratioP1;P1;durP2;ratioP2;P2;SDS_P1;SDS_P2;PMS_P1;PMS_P2;Temp;Humidity;BMP_temperature;BMP_pressure;BME280_temperature;BME280_humidity;BME280_pressure;Samples;Min_cycle;Max_cycle;Signal;HPM_P1;HPM_P2
2024/02/18 00:02:01;;;;;;;27.27;19.30;;;12.60;99.90;;;;;;4995547;28;20417;-64
2024/02/18 00:04:28;;;;;;;25.53;19.07;;;12.60;99.90;;;;;;4996214;28;20414;-65
2024/02/18 00:06:53;;;;;;;27.37;18.93;;;12.60;99.90;;;;;;4995550;28;20410;-65
2024/02/18 00:09:19;;;;;;;21.70;17.93;;;12.60;99.90;;;;;;4995889;28;20417;-66
2024/02/18 00:11:45;;;;;;;20.20;17.37;;;12.60;99.90;;;;;;4977564;28;20201;-68
2024/02/18 00:14:11;;;;;;;24.43;18.20;;;12.60;99.90;;;;;;4995636;28;20232;-66
2024/02/18 00:16:37;;;;;;;24.23;18.90;;;12.60;99.90;;;;;;4995389;28;20441;-65
2024/02/18 00:19:02;;;;;;;23.80;18.30;;;12.50;99.90;;;;;;4995334;28;20206;-65
2024/02/18 00:21:29;;;;;;;24.47;18.50;;;12.40;99.90;;;;;;4995101;28;20194;-64
2024/02/18 00:23:59;;;;;;;22.90;18.13;;;12.40;99.90;;;;;;4994564;28;20207;-72
2024/02/18 00:26:25;;;;;;;22.83;17.80;;;12.40;99.90;;;;;;4993313;28;20507;-71
2024/02/18 00:28:51;;;;;;;20.10;17.73;;;12.50;99.90;;;;;;4995628;28;20434;-73
2024/02/18 00:31:17;;;;;;;20.60;18.40;;;12.50;99.90;;;;;;4995380;28;20472;-69
2024/02/18 00:33:43;;;;;;;22.60;17.80;;;12.60;99.90;;;;;;4994333;28;20223;-61
2024/02/18 00:36:10;;;;;;;22.20;18.40;;;12.50;99.90;;;;;;4994990;28;20441;-70
2024/02/18 00:38:36;;;;;;;21.10;17.87;;;12.60;99.90;;;;;;4961273;28;20538;-69
2024/02/18 00:41:07;;;;;;;25.47;19.00;;;12.60;99.90;;;;;;4976725;28;20430;-76
2024/02/18 00:43:34;;;;;;;25.13;18.60;;;12.60;99.90;;;;;;4994925;28;20531;-69
2024/02/18 00:45:59;;;;;;;26.93;17.40;;;12.60;99.90;;;;;;4993462;28;20513;-69
2024/02/18 00:48:25;;;;;;;22.03;16.93;;;12.60;99.90;;;;;;4994524;28;20515;-69
2024/02/18 00:50:51;;;;;;;20.10;17.20;;;12.60;99.90;;;;;;4972689;28;20178;-66
2024/02/18 00:53:17;;;;;;;26.50;18.60;;;12.60;99.90;;;;;;4994432;28;20183;-68
2024/02/18 00:55:45;;;;;;;20.30;16.83;;;12.60;99.90;;;;;;4992467;28;20178;-62
2024/02/18 00:58:11;;;;;;;20.37;17.30;;;12.60;99.90;;;;;;4994274;28;20221;-69
2024/02/18 01:00:40;;;;;;;18.40;16.50;;;12.70;99.90;;;;;;4994068;28;20772;-69
2024/02/18 01:03:09;;;;;;;24.03;17.40;;;12.60;99.90;;;;;;4975737;28;20531;-68
2024/02/18 01:05:35;;;;;;;21.90;17.20;;;12.70;99.90;;;;;;4993017;28;20433;-68
2024/02/18 01:08:01;;;;;;;21.40;16.00;;;12.70;99.90;;;;;;4993365;28;20420;-68
2024/02/18 01:10:26;;;;;;;17.73;15.43;;;12.70;99.90;;;;;;4993293;28;20205;-68
2024/02/18 01:12:52;;;;;;;20.67;15.97;;;12.70;99.90;;;;;;4982240;28;20409;-68
2024/02/18 01:15:18;;;;;;;20.37;15.60;;;12.70;99.90;;;;;;4987963;28;20547;-68
2024/02/18 01:17:44;;;;;;;15.50;13.80;;;12.70;99.90;;;;;;4993276;28;20314;-62
2024/02/18 01:20:10;;;;;;;26.03;18.57;;;12.80;99.90;;;;;;4998819;28;20205;-67
2024/02/18 01:22:36;;;;;;;25.50;19.20;;;12.80;99.90;;;;;;5001896;28;20463;-68
2024/02/18 01:25:02;;;;;;;22.80;14.57;;;12.80;99.90;;;;;;4985275;28;20433;-68
2024/02/18 01:27:28;;;;;;;17.30;13.83;;;12.80;99.90;;;;;;4973076;28;20630;-68
2024/02/18 01:29:54;;;;;;;13.60;12.20;;;12.90;99.90;;;;;;4992360;28;20484;-67
2024/02/18 01:32:20;;;;;;;15.40;11.57;;;12.90;99.90;;;;;;4986853;28;20189;-72
2024/02/18 01:34:46;;;;;;;14.50;11.63;;;12.90;99.90;;;;;;4975805;28;20255;-64
2024/02/18 01:37:11;;;;;;;16.37;10.73;;;12.90;99.90;;;;;;4992616;28;20816;-73
2024/02/18 01:39:37;;;;;;;12.77;10.50;;;12.90;99.90;;;;;;4993348;28;20889;-73
2024/02/18 01:42:03;;;;;;;15.83;11.27;;;13.00;99.90;;;;;;4992487;28;20236;-73
2024/02/18 01:44:29;;;;;;;15.00;11.33;;;12.90;99.90;;;;;;4976121;28;20207;-72
2024/02/18 01:46:55;;;;;;;12.40;10.27;;;13.00;99.90;;;;;;4991606;28;20469;-72
2024/02/18 01:49:21;;;;;;;11.63;10.43;;;13.00;99.90;;;;;;4992782;28;20600;-72
2024/02/18 01:51:49;;;;;;;12.03;10.30;;;13.10;99.90;;;;;;4990767;28;20506;-64
2024/02/18 01:54:16;;;;;;;14.43;11.73;;;13.10;99.90;;;;;;4991966;28;20437;-72
2024/02/18 01:56:43;;;;;;;16.73;11.43;;;13.10;99.90;;;;;;4975640;28;20412;-72
2024/02/18 01:59:09;;;;;;;12.90;10.40;;;13.00;99.90;;;;;;4991348;28;20553;-73
2024/02/18 02:01:35;;;;;;;14.77;10.93;;;13.00;99.90;;;;;;4984845;28;20744;-72
2024/02/18 02:04:02;;;;;;;13.50;10.53;;;13.00;99.90;;;;;;4991644;28;20994;-72
2024/02/18 02:06:29;;;;;;;12.13;10.63;;;13.00;99.90;;;;;;4992308;28;20434;-73
2024/02/18 02:08:59;;;;;;;17.60;10.90;;;13.00;99.90;;;;;;4974824;28;20831;-72
2024/02/18 02:11:25;;;;;;;12.47;10.50;;;13.00;99.90;;;;;;4975761;28;20836;-72
2024/02/18 02:13:51;;;;;;;11.33;10.17;;;13.00;99.90;;;;;;4992547;28;20517;-72
2024/02/18 02:16:17;;;;;;;12.23;9.90;;;13.00;99.90;;;;;;4992597;28;20506;-72
2024/02/18 02:18:42;;;;;;;16.23;9.67;;;13.00;99.90;;;;;;4993179;28;20622;-72
2024/02/18 02:21:08;;;;;;;12.60;10.20;;;13.00;99.90;;;;;;4991616;28;20491;-72
2024/02/18 02:23:34;;;;;;;10.27;9.10;;;13.00;99.90;;;;;;4992062;28;20244;-72
2024/02/18 02:26:01;;;;;;;12.07;9.67;;;13.00;99.90;;;;;;4992172;28;20512;-72
2024/02/18 02:28:31;;;;;;;10.97;8.50;;;13.10;99.90;;;;;;4993066;28;20562;-72
2024/02/18 02:30:59;;;;;;;12.20;9.20;;;13.10;99.90;;;;;;4991664;28;20501;-71
2024/02/18 02:33:25;;;;;;;9.73;8.83;;;13.10;99.90;;;;;;4975113;28;20426;-72
2024/02/18 02:35:51;;;;;;;12.20;8.90;;;13.10;99.90;;;;;;4974408;28;20434;-71
2024/02/18 02:38:17;;;;;;;10.47;9.40;;;13.10;99.90;;;;;;4974749;28;20218;-71
2024/02/18 02:40:42;;;;;;;10.47;8.43;;;13.10;99.90;;;;;;4991390;28;20415;-73
2024/02/18 02:43:10;;;;;;;10.67;9.57;;;13.20;99.90;;;;;;4974400;28;20434;-72
2024/02/18 02:45:36;;;;;;;9.87;8.97;;;13.10;99.90;;;;;;4991691;28;20574;-72
2024/02/18 02:48:02;;;;;;;8.63;7.83;;;13.10;99.90;;;;;;4991844;28;20502;-71
2024/02/18 02:50:28;;;;;;;9.90;8.03;;;13.00;99.90;;;;;;4978282;28;20517;-71
2024/02/18 02:52:54;;;;;;;10.80;9.40;;;13.00;99.90;;;;;;4988853;28;20535;-71
2024/02/18 02:55:19;;;;;;;16.73;9.07;;;13.00;99.90;;;;;;4992310;28;20426;-71
2024/02/18 02:57:48;;;;;;;11.77;9.20;;;12.90;99.90;;;;;;4992507;28;20295;-71
2024/02/18 03:00:14;;;;;;;11.70;9.30;;;12.90;99.90;;;;;;4987871;28;20206;-64
2024/02/18 03:02:41;;;;;;;11.50;9.50;;;12.70;99.90;;;;;;4991848;28;20425;-71
2024/02/18 03:05:09;;;;;;;10.40;9.40;;;12.80;99.90;;;;;;4990597;28;20512;-63
2024/02/18 03:07:35;;;;;;;12.00;9.23;;;12.80;99.90;;;;;;4992401;28;20437;-70
2024/02/18 03:10:02;;;;;;;13.10;8.87;;;12.80;99.90;;;;;;4973893;28;20921;-68
2024/02/18 03:12:29;;;;;;;11.00;9.90;;;12.90;99.90;;;;;;4975122;28;20821;-72
2024/02/18 03:14:55;;;;;;;11.63;8.77;;;12.90;99.90;;;;;;4991390;28;20418;-72
2024/02/18 03:17:21;;;;;;;10.17;9.20;;;13.00;99.90;;;;;;4991510;28;20477;-72
2024/02/18 03:19:47;;;;;;;10.97;9.87;;;13.00;99.90;;;;;;4995373;28;20201;-73
2024/02/18 03:22:23;;;;;;;10.20;8.50;;;13.00;99.90;;;;;;4995704;28;20182;-73
2024/02/18 03:24:51;;;;;;;16.00;9.87;;;12.90;99.90;;;;;;4995625;28;20762;-63
2024/02/18 03:27:17;;;;;;;10.53;9.43;;;12.90;99.90;;;;;;4995852;28;20437;-72
2024/02/18 03:29:47;;;;;;;10.93;9.83;;;12.90;99.90;;;;;;4965138;28;20541;-72
2024/02/18 03:32:13;;;;;;;10.90;9.03;;;12.90;99.90;;;;;;4976920;28;20429;-71
2024/02/18 03:34:41;;;;;;;11.37;8.80;;;12.80;99.90;;;;;;4977163;28;20414;-73
2024/02/18 03:37:07;;;;;;;11.10;9.50;;;12.80;99.90;;;;;;4987701;28;20444;-73
2024/02/18 03:39:33;;;;;;;10.90;9.33;;;12.80;99.90;;;;;;4994493;28;20430;-72
2024/02/18 03:41:59;;;;;;;11.07;8.63;;;12.80;99.90;;;;;;4995229;28;20182;-71
2024/02/18 03:44:24;;;;;;;10.17;9.07;;;12.80;99.90;;;;;;4995781;28;20210;-70
2024/02/18 03:46:50;;;;;;;10.37;9.37;;;12.80;99.90;;;;;;4995518;28;20602;-64
2024/02/18 03:49:16;;;;;;;10.87;8.97;;;12.80;99.90;;;;;;4994462;28;20532;-73
2024/02/18 03:51:41;;;;;;;10.93;9.60;;;12.80;99.90;;;;;;4994759;28;20186;-72
2024/02/18 03:54:07;;;;;;;12.73;9.17;;;12.80;99.90;;;;;;4976951;28;20186;-73
2024/02/18 03:56:34;;;;;;;10.00;8.90;;;12.80;99.90;;;;;;4995805;28;20549;-72
2024/02/18 03:59:00;;;;;;;9.83;8.83;;;12.70;99.90;;;;;;4994125;28;20205;-73
2024/02/18 04:01:26;;;;;;;11.40;9.63;;;12.70;99.90;;;;;;4961610;28;20414;-72
2024/02/18 04:03:52;;;;;;;10.43;9.43;;;12.80;99.90;;;;;;4994780;28;20179;-64
2024/02/18 04:06:17;;;;;;;10.57;9.37;;;12.70;99.90;;;;;;4995273;28;20210;-72
2024/02/18 04:08:43;;;;;;;10.20;8.30;;;12.70;99.90;;;;;;4995666;28;20198;-72
2024/02/18 04:11:09;;;;;;;9.60;7.97;;;12.70;99.90;;;;;;4974075;28;20184;-72
2024/02/18 04:13:37;;;;;;;8.80;7.73;;;12.70;99.90;;;;;;4991712;28;20452;-71
2024/02/18 04:16:03;;;;;;;9.83;8.07;;;12.70;99.90;;;;;;4994576;28;20179;-71
2024/02/18 04:18:29;;;;;;;8.67;7.77;;;12.70;99.90;;;;;;4993891;28;20544;-68
2024/02/18 04:20:55;;;;;;;9.10;8.20;;;12.70;99.90;;;;;;4993997;28;20806;-70
2024/02/18 04:23:21;;;;;;;9.40;8.60;;;12.70;99.90;;;;;;4995196;28;20436;-72
2024/02/18 04:25:46;;;;;;;9.43;8.43;;;12.80;99.90;;;;;;4995398;28;20172;-72
2024/02/18 04:28:12;;;;;;;8.57;7.87;;;12.80;99.90;;;;;;4994192;28;20191;-72
2024/02/18 04:30:38;;;;;;;11.03;8.63;;;12.80;99.90;;;;;;4971082;28;20264;-72
2024/02/18 04:33:04;;;;;;;9.17;7.87;;;12.80;99.90;;;;;;4992223;28;20190;-70
2024/02/18 04:35:29;;;;;;;12.63;8.33;;;12.80;99.90;;;;;;4989412;28;20183;-71
2024/02/18 04:37:55;;;;;;;9.00;8.23;;;12.80;99.90;;;;;;4993962;28;20457;-70
2024/02/18 04:40:21;;;;;;;8.97;7.90;;;12.80;99.90;;;;;;4994468;28;20226;-72
2024/02/18 04:42:47;;;;;;;12.03;8.00;;;12.50;99.90;;;;;;4993377;28;20218;-71
2024/02/18 04:45:12;;;;;;;9.73;7.83;;;12.60;99.90;;;;;;4993969;28;20194;-72
2024/02/18 04:47:38;;;;;;;9.03;8.13;;;12.40;99.90;;;;;;4993263;28;20198;-72
2024/02/18 04:50:04;;;;;;;9.40;8.40;;;12.40;99.90;;;;;;4993019;28;20666;-72
2024/02/18 04:52:31;;;;;;;9.40;7.10;;;12.30;99.90;;;;;;4994712;28;20292;-72
2024/02/18 04:54:57;;;;;;;9.77;8.47;;;12.30;99.90;;;;;;4976559;28;20842;-72
2024/02/18 04:57:22;;;;;;;11.50;9.20;;;12.30;99.90;;;;;;4977424;28;20469;-72
2024/02/18 04:59:48;;;;;;;10.03;9.03;;;12.30;99.90;;;;;;4993911;28;20420;-69
2024/02/18 05:02:15;;;;;;;11.20;9.47;;;12.20;99.90;;;;;;4991850;28;20322;-71
2024/02/18 05:04:40;;;;;;;11.17;8.80;;;12.20;99.90;;;;;;4993946;28;20169;-72
2024/02/18 05:07:06;;;;;;;12.67;10.07;;;12.20;99.90;;;;;;4992968;28;20827;-71
2024/02/18 05:09:32;;;;;;;9.40;8.50;;;12.30;99.90;;;;;;4994295;28;20189;-72
2024/02/18 05:11:58;;;;;;;10.67;9.10;;;12.30;99.90;;;;;;4993443;28;20197;-71
2024/02/18 05:14:23;;;;;;;9.30;8.33;;;12.30;99.90;;;;;;4994172;28;20183;-70
2024/02/18 05:16:49;;;;;;;7.80;7.00;;;12.30;99.90;;;;;;4993290;28;20178;-70
2024/02/18 05:19:16;;;;;;;7.40;6.70;;;12.30;99.90;;;;;;4993335;28;20211;-70
2024/02/18 05:21:42;;;;;;;8.07;6.93;;;12.30;99.90;;;;;;4993224;28;20205;-72
2024/02/18 05:24:09;;;;;;;6.70;5.97;;;12.30;99.90;;;;;;4993240;28;20422;-71
2024/02/18 05:26:35;;;;;;;7.33;6.63;;;12.30;99.90;;;;;;4976077;28;20264;-71
2024/02/18 05:29:01;;;;;;;8.20;6.47;;;12.10;99.90;;;;;;4975707;28;20513;-72
2024/02/18 05:31:27;;;;;;;8.00;7.30;;;12.10;99.90;;;;;;4993572;28;20427;-71
2024/02/18 05:33:53;;;;;;;8.23;7.10;;;12.10;99.90;;;;;;4992951;28;20643;-64
2024/02/18 05:36:22;;;;;;;8.17;6.70;;;12.10;99.90;;;;;;4993015;28;20188;-72
2024/02/18 05:38:48;;;;;;;7.87;7.17;;;12.20;99.90;;;;;;4993516;28;20468;-72
2024/02/18 05:41:14;;;;;;;6.43;5.83;;;12.10;99.90;;;;;;4992581;28;20431;-71
2024/02/18 05:43:39;;;;;;;7.30;6.70;;;12.10;99.90;;;;;;4976811;28;20425;-72
2024/02/18 05:46:10;;;;;;;7.43;6.73;;;12.20;99.90;;;;;;4993590;28;20574;-72
2024/02/18 05:48:37;;;;;;;7.80;7.10;;;12.20;99.90;;;;;;4993099;28;20636;-72
2024/02/18 05:51:03;;;;;;;8.20;7.00;;;12.10;99.90;;;;;;4993245;28;20465;-72
2024/02/18 05:53:29;;;;;;;7.70;6.90;;;12.10;99.90;;;;;;4976727;28;20436;-71
2024/02/18 05:55:54;;;;;;;9.13;6.40;;;12.10;99.90;;;;;;4993007;28;20432;-64
2024/02/18 05:58:20;;;;;;;7.20;6.50;;;12.10;99.90;;;;;;4992911;28;20643;-72
2024/02/18 06:00:46;;;;;;;7.73;7.03;;;12.10;99.90;;;;;;4975447;28;20676;-73
2024/02/18 06:03:12;;;;;;;8.17;7.13;;;12.10;99.90;;;;;;4992502;28;20337;-72
2024/02/18 06:05:38;;;;;;;8.13;7.37;;;12.10;99.90;;;;;;4992509;28;20423;-72
2024/02/18 06:08:04;;;;;;;7.77;7.07;;;12.00;99.90;;;;;;4992603;28;20718;-72
2024/02/18 06:10:30;;;;;;;7.50;6.90;;;12.00;99.90;;;;;;4973201;28;20183;-72
2024/02/18 06:12:56;;;;;;;7.77;7.07;;;12.00;99.90;;;;;;4991914;28;20890;-62
2024/02/18 06:15:22;;;;;;;8.17;7.13;;;12.00;99.90;;;;;;4993038;28;20203;-72
2024/02/18 06:17:47;;;;;;;7.27;6.60;;;12.00;99.90;;;;;;4991715;28;20485;-68
2024/02/18 06:20:13;;;;;;;8.03;6.90;;;12.00;99.90;;;;;;4992243;28;20194;-70
2024/02/18 06:22:39;;;;;;;6.70;6.20;;;11.90;99.90;;;;;;4992976;28;20622;-71
2024/02/18 06:25:06;;;;;;;7.47;6.77;;;11.90;99.90;;;;;;4992442;28;20599;-70
2024/02/18 06:27:32;;;;;;;6.73;5.90;;;12.00;99.90;;;;;;4993131;28;20436;-70
2024/02/18 06:29:58;;;;;;;7.87;7.07;;;12.00;99.90;;;;;;4991976;28;20440;-69
2024/02/18 06:32:27;;;;;;;7.40;6.70;;;11.90;99.90;;;;;;4992689;28;20416;-70
2024/02/18 06:34:53;;;;;;;6.90;6.07;;;11.90;99.90;;;;;;4992107;28;20450;-59
2024/02/18 06:37:19;;;;;;;6.80;6.13;;;12.00;99.90;;;;;;4992425;28;20473;-71
2024/02/18 06:39:44;;;;;;;8.37;6.70;;;12.00;99.90;;;;;;4992449;28;20714;-71
2024/02/18 06:42:10;;;;;;;6.80;6.20;;;12.00;99.90;;;;;;4992314;28;20174;-71
2024/02/18 06:44:36;;;;;;;7.33;6.53;;;12.00;99.90;;;;;;4992602;28;20251;-71
2024/02/18 06:47:02;;;;;;;7.10;6.50;;;12.00;99.90;;;;;;4990739;28;20534;-70
2024/02/18 06:49:27;;;;;;;5.90;5.40;;;12.00;99.90;;;;;;4992229;28;20224;-70
2024/02/18 06:51:53;;;;;;;6.30;5.80;;;12.00;99.90;;;;;;4992547;28;20172;-64
2024/02/18 06:54:19;;;;;;;6.70;6.20;;;12.00;99.90;;;;;;4992011;28;20177;-71
2024/02/18 06:56:44;;;;;;;6.30;5.70;;;11.90;99.90;;;;;;4992369;28;20455;-71
2024/02/18 06:59:13;;;;;;;6.67;5.97;;;11.80;99.90;;;;;;4973885;28;20217;-71
2024/02/18 07:01:39;;;;;;;6.47;5.87;;;11.90;99.90;;;;;;4992333;28;20202;-71
2024/02/18 07:04:04;;;;;;;6.93;5.90;;;11.90;99.90;;;;;;4991603;28;20919;-71
2024/02/18 07:06:30;;;;;;;6.37;5.40;;;12.00;99.90;;;;;;4959242;28;20781;-71
2024/02/18 07:08:56;;;;;;;5.97;5.47;;;12.00;99.90;;;;;;4991216;28;20256;-71
2024/02/18 07:11:25;;;;;;;5.77;5.30;;;12.00;99.90;;;;;;4992962;28;20263;-71
2024/02/18 07:13:52;;;;;;;5.93;5.43;;;11.90;99.90;;;;;;4992139;28;20710;-72
2024/02/18 07:16:18;;;;;;;6.17;5.63;;;12.00;99.90;;;;;;4990683;28;20420;-66
2024/02/18 07:18:43;;;;;;;5.70;5.20;;;12.00;99.90;;;;;;4991774;28;20970;-70
2024/02/18 07:21:11;;;;;;;6.23;5.73;;;12.00;99.90;;;;;;4991487;28;20407;-71
2024/02/18 07:23:37;;;;;;;5.40;5.00;;;12.00;99.90;;;;;;4991594;28;20544;-71
2024/02/18 07:26:03;;;;;;;5.67;5.17;;;12.10;99.90;;;;;;4991668;28;20430;-71
2024/02/18 07:28:28;;;;;;;6.10;5.50;;;12.10;99.90;;;;;;4992670;28;20186;-70
2024/02/18 07:30:55;;;;;;;6.53;6.03;;;12.10;99.90;;;;;;4992565;28;20440;-60
2024/02/18 07:33:20;;;;;;;6.07;5.20;;;12.10;99.90;;;;;;4992383;28;20192;-71
2024/02/18 07:35:46;;;;;;;5.80;5.30;;;12.20;99.90;;;;;;4992060;28;20427;-70
2024/02/18 07:38:12;;;;;;;5.63;5.13;;;12.20;99.90;;;;;;4991399;28;20292;-70
2024/02/18 07:40:38;;;;;;;5.23;4.90;;;12.00;99.90;;;;;;4992461;28;20202;-71
2024/02/18 07:43:04;;;;;;;6.10;5.50;;;12.00;99.90;;;;;;4992539;28;20184;-71
2024/02/18 07:45:29;;;;;;;5.00;4.70;;;11.80;99.90;;;;;;4992762;28;20284;-70
2024/02/18 07:47:55;;;;;;;6.33;5.83;;;11.90;99.90;;;;;;4991696;28;20529;-64
2024/02/18 07:50:21;;;;;;;6.47;5.33;;;11.90;99.90;;;;;;4993560;28;20175;-68
2024/02/18 07:52:47;;;;;;;5.70;4.87;;;12.00;99.90;;;;;;4992270;28;20182;-68
2024/02/18 07:55:13;;;;;;;5.43;4.47;;;12.00;99.90;;;;;;4992126;28;20420;-68
2024/02/18 07:57:41;;;;;;;7.90;5.10;;;12.10;99.90;;;;;;4992208;28;20346;-68
2024/02/18 08:00:07;;;;;;;5.23;4.80;;;12.20;99.90;;;;;;4991566;28;20232;-67
2024/02/18 08:02:33;;;;;;;4.67;4.37;;;12.20;99.90;;;;;;4991186;28;20440;-67
2024/02/18 08:04:59;;;;;;;4.83;4.37;;;11.90;99.90;;;;;;4994051;28;20771;-68
2024/02/18 08:07:24;;;;;;;7.53;5.43;;;11.90;99.90;;;;;;4977515;28;20183;-67
2024/02/18 08:09:51;;;;;;;7.00;5.47;;;11.90;99.90;;;;;;4995991;28;20181;-68
2024/02/18 08:12:17;;;;;;;5.50;5.00;;;12.00;99.90;;;;;;4995269;28;20443;-68
2024/02/18 08:14:42;;;;;;;5.23;4.83;;;11.90;99.90;;;;;;4995861;28;20416;-68
2024/02/18 08:17:09;;;;;;;5.37;4.87;;;11.80;99.90;;;;;;4974285;28;20707;-68
2024/02/18 08:19:35;;;;;;;6.33;5.80;;;11.80;99.90;;;;;;4995947;28;20213;-68
2024/02/18 08:22:01;;;;;;;5.57;5.07;;;11.80;99.90;;;;;;4994949;28;20411;-67
2024/02/18 08:24:27;;;;;;;11.40;6.50;;;11.80;99.90;;;;;;4995815;28;20635;-68
2024/02/18 08:26:53;;;;;;;7.37;6.57;;;11.80;99.90;;;;;;4995021;28;20454;-67
2024/02/18 08:29:19;;;;;;;6.37;5.80;;;11.80;99.90;;;;;;4994842;28;20187;-68
2024/02/18 08:31:44;;;;;;;8.80;6.40;;;11.90;99.90;;;;;;4974512;28;20180;-70
2024/02/18 08:34:11;;;;;;;6.30;5.70;;;11.90;99.90;;;;;;4975466;28;20174;-68
2024/02/18 08:36:38;;;;;;;7.50;6.90;;;12.00;99.90;;;;;;4992784;28;20235;-68
2024/02/18 08:39:04;;;;;;;8.50;6.30;;;12.00;99.90;;;;;;4988041;28;21026;-69
2024/02/18 08:41:30;;;;;;;7.60;6.77;;;12.00;99.90;;;;;;4995133;28;20506;-67
2024/02/18 08:43:55;;;;;;;7.20;6.50;;;12.00;99.90;;;;;;4995563;28;20204;-68
2024/02/18 08:46:22;;;;;;;7.00;6.30;;;12.10;99.90;;;;;;4993792;28;20182;-67
2024/02/18 08:48:48;;;;;;;7.53;6.80;;;12.10;99.90;;;;;;4976664;28;20556;-69
2024/02/18 08:51:14;;;;;;;7.87;7.27;;;12.20;99.90;;;;;;4994195;28;20493;-69
2024/02/18 08:53:41;;;;;;;6.90;6.30;;;12.00;99.90;;;;;;4994669;28;20178;-68
2024/02/18 08:56:10;;;;;;;6.63;6.13;;;12.00;99.90;;;;;;4972533;28;20433;-67
2024/02/18 08:58:36;;;;;;;7.40;6.90;;;12.00;99.90;;;;;;4985136;28;20465;-68
2024/02/18 09:01:02;;;;;;;7.47;6.93;;;12.00;99.90;;;;;;4994246;28;20415;-68
2024/02/18 09:03:30;;;;;;;8.03;7.30;;;12.00;99.90;;;;;;4995175;28;20203;-68
2024/02/18 09:05:57;;;;;;;6.57;6.07;;;12.00;99.90;;;;;;4994797;28;20565;-68
2024/02/18 09:08:23;;;;;;;7.07;6.43;;;12.00;99.90;;;;;;4994532;28;20924;-67
2024/02/18 09:10:49;;;;;;;6.47;6.07;;;12.10;99.90;;;;;;4981092;28;20417;-68
2024/02/18 09:13:15;;;;;;;6.80;6.00;;;12.20;99.90;;;;;;4982396;28;20753;-68
2024/02/18 09:15:41;;;;;;;6.40;5.80;;;12.10;99.90;;;;;;4993882;28;20414;-67
2024/02/18 09:18:07;;;;;;;6.90;6.40;;;12.20;99.90;;;;;;4992787;28;20717;-66
2024/02/18 09:20:34;;;;;;;6.83;6.27;;;12.30;99.90;;;;;;4994455;28;20412;-66
2024/02/18 09:23:00;;;;;;;7.10;6.40;;;12.10;99.90;;;;;;4994146;28;20442;-65
2024/02/18 09:25:25;;;;;;;6.47;5.97;;;11.80;99.90;;;;;;4994466;28;20892;-66
2024/02/18 09:27:51;;;;;;;6.13;5.53;;;11.70;99.90;;;;;;4976875;28;20428;-66
2024/02/18 09:30:17;;;;;;;4.67;4.27;;;11.60;99.90;;;;;;4993673;28;20183;-67
2024/02/18 09:32:44;;;;;;;5.63;5.20;;;11.70;99.90;;;;;;4993246;28;20183;-63
2024/02/18 09:35:12;;;;;;;6.43;5.60;;;11.90;99.90;;;;;;4974590;28;20482;-62
2024/02/18 09:37:38;;;;;;;5.20;4.87;;;12.30;99.90;;;;;;4975820;28;20475;-62
2024/02/18 09:40:04;;;;;;;6.67;6.10;;;12.90;99.90;;;;;;4973056;28;20434;-63
2024/02/18 09:42:41;;;;;;;5.83;5.43;;;14.00;99.90;;;;;;4976714;28;20187;-63
2024/02/18 09:45:11;;;;;;;5.30;4.80;;;14.60;99.90;;;;;;4991389;28;20866;-63
2024/02/18 09:47:40;;;;;;;4.90;4.50;;;15.10;99.90;;;;;;4996241;28;20461;-64
2024/02/18 09:50:09;;;;;;;4.20;3.80;;;15.60;99.90;;;;;;5002975;28;20930;-64
2024/02/18 09:52:44;;;;;;;4.23;3.93;;;15.90;99.90;;;;;;5003871;28;20411;-63
2024/02/18 09:55:11;;;;;;;4.53;4.07;;;16.20;99.90;;;;;;4998191;28;20403;-63
2024/02/18 09:57:40;;;;;;;4.70;4.30;;;16.50;99.90;;;;;;5003674;28;20469;-63
2024/02/18 10:00:09;;;;;;;4.67;4.27;;;16.70;99.90;;;;;;4998147;28;20427;-64
2024/02/18 10:02:36;;;;;;;4.67;4.27;;;16.80;99.90;;;;;;4999936;28;20427;-63
2024/02/18 10:05:06;;;;;;;4.57;4.17;;;17.00;99.90;;;;;;4983473;28;20480;-64
2024/02/18 10:07:33;;;;;;;3.83;3.63;;;17.10;99.60;;;;;;4982858;28;20446;-63
2024/02/18 10:10:01;;;;;;;4.33;4.03;;;17.20;98.00;;;;;;4992689;28;20454;-63
2024/02/18 10:12:31;;;;;;;4.50;3.53;;;17.20;97.40;;;;;;4992888;28;20453;-63
2024/02/18 10:15:03;;;;;;;4.87;4.57;;;17.30;96.60;;;;;;4941390;28;20419;-61
2024/02/18 10:17:30;;;;;;;4.43;4.13;;;17.30;96.20;;;;;;4980526;28;20474;-62
2024/02/18 10:19:57;;;;;;;6.50;4.50;;;17.40;95.90;;;;;;4991186;28;20785;-63
2024/02/18 10:22:26;;;;;;;12.97;11.67;;;17.30;95.10;;;;;;4995631;28;20546;-63
2024/02/18 10:24:53;;;;;;;46.27;36.80;;;17.40;95.10;;;;;;4994414;28;20430;-63
2024/02/18 10:27:20;;;;;;;62.67;52.90;;;17.40;94.50;;;;;;4993841;28;20771;-63
2024/02/18 10:29:50;;;;;;;54.07;43.00;;;17.40;94.00;;;;;;5003082;28;20406;-63
2024/02/18 10:32:17;;;;;;;31.67;27.57;;;17.50;94.10;;;;;;5000717;28;20419;-63
2024/02/18 10:34:44;;;;;;;11.93;10.90;;;17.50;93.50;;;;;;5004382;28;20421;-63
2024/02/18 10:37:23;;;;;;;17.00;15.20;;;17.50;92.90;;;;;;4983089;28;20907;-63
2024/02/18 10:39:53;;;;;;;14.37;12.90;;;17.50;92.70;;;;;;5001052;28;20434;-63
2024/02/18 10:42:21;;;;;;;9.87;8.87;;;17.50;94.00;;;;;;5004243;28;20394;-59
2024/02/18 10:44:50;;;;;;;5.07;4.73;;;17.40;93.00;;;;;;5003318;28;20429;-72
2024/02/18 10:47:17;;;;;;;4.60;4.30;;;17.30;91.30;;;;;;4980404;28;20431;-75
2024/02/18 10:49:53;;;;;;;5.60;5.10;;;16.40;90.10;;;;;;5002564;28;20429;-74
2024/02/18 10:52:36;;;;;;;4.70;4.40;;;15.20;92.30;;;;;;4999144;28;20440;-75
2024/02/18 10:55:06;;;;;;;5.20;4.80;;;14.40;95.20;;;;;;4998859;28;20446;-64
2024/02/18 10:57:41;;;;;;;279.67;193.37;;;13.80;96.30;;;;;;5000756;28;20459;-72
2024/02/18 11:00:12;;;;;;;10.10;8.20;;;13.40;99.30;;;;;;4998193;28;20422;-73
2024/02/18 11:02:38;;;;;;;5.83;5.30;;;13.00;99.90;;;;;;4997720;28;20786;-74
2024/02/18 11:05:05;;;;;;;4.57;4.20;;;12.50;99.90;;;;;;4996753;28;20429;-66
2024/02/18 11:07:31;;;;;;;5.07;4.57;;;12.30;99.90;;;;;;4967563;28;20181;-75
2024/02/18 11:09:59;;;;;;;6.13;5.30;;;12.30;99.90;;;;;;4976418;28;20437;-73
2024/02/18 11:12:25;;;;;;;4.80;4.50;;;12.30;99.90;;;;;;4991207;28;20468;-74
2024/02/18 11:14:52;;;;;;;6.80;5.23;;;12.20;99.90;;;;;;4994243;28;20434;-75
2024/02/18 11:17:18;;;;;;;5.10;4.80;;;12.00;99.90;;;;;;4993399;28;20462;-74
2024/02/18 11:19:45;;;;;;;4.83;4.53;;;11.90;99.90;;;;;;5000728;28;20521;-75
2024/02/18 11:22:11;;;;;;;5.47;4.97;;;11.80;99.90;;;;;;4998340;28;20977;-75
2024/02/18 11:24:37;;;;;;;58.53;38.43;;;11.60;99.90;;;;;;5002373;28;20414;-75
2024/02/18 11:27:03;;;;;;;237.70;132.40;;;11.60;99.90;;;;;;4983139;28;20429;-66
2024/02/18 11:29:29;;;;;;;4.73;4.43;;;11.60;99.90;;;;;;4992325;28;20184;-74
2024/02/18 11:31:55;;;;;;;4.33;3.90;;;11.50;99.90;;;;;;4992037;28;20431;-74
2024/02/18 11:34:21;;;;;;;4.93;4.40;;;11.50;99.90;;;;;;4991397;28;20423;-75
2024/02/18 11:36:47;;;;;;;4.33;3.70;;;11.40;99.90;;;;;;4992341;28;20921;-75
2024/02/18 11:39:13;;;;;;;6.03;4.00;;;11.40;99.90;;;;;;4992435;28;20273;-75
2024/02/18 11:41:39;;;;;;;4.60;4.27;;;11.50;99.90;;;;;;4996278;28;20585;-74
2024/02/18 11:44:10;;;;;;;5.70;5.10;;;11.60;99.90;;;;;;4995037;28;20422;-67
2024/02/18 11:46:39;;;;;;;4.60;4.20;;;11.50;99.90;;;;;;4995962;28;20180;-75
2024/02/18 11:49:06;;;;;;;4.70;4.00;;;11.40;99.90;;;;;;4977845;28;20791;-66
2024/02/18 11:51:33;;;;;;;211.90;115.27;;;11.50;99.90;;;;;;4995042;28;20427;-76
2024/02/18 11:53:59;;;;;;;26.23;15.63;;;11.50;99.90;;;;;;4994029;28;20586;-75
2024/02/18 11:56:25;;;;;;;4.90;4.50;;;11.60;99.90;;;;;;4995960;28;20864;-74
2024/02/18 11:58:51;;;;;;;4.30;3.80;;;11.60;99.90;;;;;;4979009;28;20842;-74
2024/02/18 12:01:23;;;;;;;5.53;4.10;;;11.60;99.90;;;;;;4977806;28;20429;-75
2024/02/18 12:03:50;;;;;;;4.53;4.13;;;11.60;99.90;;;;;;4977906;28;20535;-70
2024/02/18 12:06:16;;;;;;;6.10;4.47;;;11.60;99.90;;;;;;4995643;28;20415;-70
2024/02/18 12:08:42;;;;;;;5.30;4.80;;;11.60;99.90;;;;;;4994493;28;20429;-69
2024/02/18 12:11:08;;;;;;;6.50;4.77;;;11.50;99.90;;;;;;4990381;28;20461;-65
2024/02/18 12:13:34;;;;;;;5.47;5.07;;;11.50;99.90;;;;;;4988009;28;20520;-79
2024/02/18 12:16:02;;;;;;;4.20;4.00;;;11.60;99.90;;;;;;4977858;28;20180;-64
2024/02/18 12:18:28;;;;;;;4.90;4.50;;;11.60;99.90;;;;;;4995592;28;20364;-65
2024/02/18 12:20:55;;;;;;;4.57;4.17;;;11.40;99.90;;;;;;4996813;28;20462;-64
2024/02/18 12:23:24;;;;;;;5.20;4.70;;;11.50;99.90;;;;;;4976109;28;20918;-64
2024/02/18 12:25:56;;;;;;;5.10;4.70;;;11.70;99.90;;;;;;4995065;28;20419;-64
2024/02/18 12:28:22;;;;;;;4.70;4.30;;;11.80;99.90;;;;;;4995165;28;20406;-64
2024/02/18 12:30:50;;;;;;;4.40;4.20;;;11.60;99.90;;;;;;4978406;28;20774;-64
2024/02/18 12:33:16;;;;;;;4.57;4.27;;;11.70;99.90;;;;;;4995178;28;20409;-65
2024/02/18 12:35:43;;;;;;;4.27;3.90;;;11.80;99.90;;;;;;4995652;28;20485;-64
2024/02/18 12:38:09;;;;;;;4.57;4.17;;;11.70;99.90;;;;;;4995035;28;20453;-75